sensor_id;sensor_type;location;lat;lon;timestamp;P1;durP1;ratioP1;P2;durP2;ratioP2
75885;SDS011;64561;44.018;10.144;2024-01-15T00:02:07;4.60;;;2.63;;
75885;SDS011;64561;44.018;10.144;2024-01-15T00:04:38;4.32;;;2.65;;
75885;SDS011;64561;44.018;10.144;2024-01-15T00:07:06;4.35;;;2.20;;
75885;SDS011;64561;44.018;10.144;2024-01-15T00:09:34;4.25;;;2.30;;
75885;SDS011;64561;44.018;10.144;2024-01-15T00:12:02;5.63;;;2.70;;
75885;SDS011;64561;44.018;10.144;2024-01-15T00:14:29;6.70;;;4.00;;
75885;SDS011;64561;44.018;10.144;2024-01-15T00:16:56;5.30;;;3.35;;
75885;SDS011;64561;44.018;10.144;2024-01-15T00:19:24;4.43;;;2.72;;
75885;SDS011;64561;44.018;10.144;2024-01-15T00:21:51;7.43;;;2.70;;
75885;SDS011;64561;44.018;10.144;2024-01-15T00:24:21;4.25;;;2.42;;
75885;SDS011;64561;44.018;10.144;2024-01-15T00:26:48;3.92;;;2.75;;
75885;SDS011;64561;44.018;10.144;2024-01-15T00:29:15;4.88;;;2.63;;
75885;SDS011;64561;44.018;10.144;2024-01-15T00:31:42;3.92;;;2.67;;
75885;SDS011;64561;44.018;10.144;2024-01-15T00:34:10;4.50;;;2.45;;
75885;SDS011;64561;44.018;10.144;2024-01-15T00:36:37;5.00;;;2.53;;
75885;SDS011;64561;44.018;10.144;2024-01-15T00:39:04;5.45;;;2.60;;
75885;SDS011;64561;44.018;10.144;2024-01-15T00:41:34;5.78;;;2.28;;
75885;SDS011;64561;44.018;10.144;2024-01-15T00:44:01;3.60;;;2.30;;
75885;SDS011;64561;44.018;10.144;2024-01-15T00:46:29;3.55;;;2.10;;
75885;SDS011;64561;44.018;10.144;2024-01-15T00:48:56;7.13;;;2.45;;
75885;SDS011;64561;44.018;10.144;2024-01-15T00:51:24;5.45;;;2.75;;
75885;SDS011;64561;44.018;10.144;2024-01-15T00:53:51;4.68;;;2.60;;
75885;SDS011;64561;44.018;10.144;2024-01-15T00:56:18;4.43;;;2.25;;
75885;SDS011;64561;44.018;10.144;2024-01-15T00:58:45;5.45;;;2.03;;
75885;SDS011;64561;44.018;10.144;2024-01-15T01:01:12;3.55;;;2.10;;
75885;SDS011;64561;44.018;10.144;2024-01-15T01:03:40;4.95;;;2.53;;
75885;SDS011;64561;44.018;10.144;2024-01-15T01:06:07;4.82;;;2.47;;
75885;SDS011;64561;44.018;10.144;2024-01-15T01:08:34;3.65;;;2.10;;
75885;SDS011;64561;44.018;10.144;2024-01-15T01:11:01;4.43;;;2.50;;
75885;SDS011;64561;44.018;10.144;2024-01-15T01:13:28;5.50;;;2.88;;
75885;SDS011;64561;44.018;10.144;2024-01-15T01:15:55;4.28;;;2.20;;
75885;SDS011;64561;44.018;10.144;2024-01-15T01:18:23;4.68;;;2.35;;
75885;SDS011;64561;44.018;10.144;2024-01-15T01:20:50;4.85;;;2.33;;
75885;SDS011;64561;44.018;10.144;2024-01-15T01:23:17;6.55;;;2.65;;
75885;SDS011;64561;44.018;10.144;2024-01-15T01:25:44;4.18;;;2.10;;
75885;SDS011;64561;44.018;10.144;2024-01-15T01:28:12;4.82;;;2.45;;
75885;SDS011;64561;44.018;10.144;2024-01-15T01:30:39;3.88;;;3.42;;
75885;SDS011;64561;44.018;10.144;2024-01-15T01:33:06;8.82;;;2.80;;
75885;SDS011;64561;44.018;10.144;2024-01-15T01:35:33;3.63;;;2.60;;
75885;SDS011;64561;44.018;10.144;2024-01-15T01:38:01;5.28;;;2.80;;
75885;SDS011;64561;44.018;10.144;2024-01-15T01:40:28;3.88;;;2.72;;
75885;SDS011;64561;44.018;10.144;2024-01-15T01:42:55;5.00;;;2.42;;
75885;SDS011;64561;44.018;10.144;2024-01-15T01:45:22;4.43;;;2.60;;
75885;SDS011;64561;44.018;10.144;2024-01-15T01:47:49;6.32;;;2.80;;
75885;SDS011;64561;44.018;10.144;2024-01-15T01:50:17;6.03;;;2.85;;
75885;SDS011;64561;44.018;10.144;2024-01-15T01:52:44;5.38;;;2.28;;
75885;SDS011;64561;44.018;10.144;2024-01-15T01:55:11;4.72;;;2.47;;
75885;SDS011;64561;44.018;10.144;2024-01-15T01:57:39;3.72;;;2.40;;
75885;SDS011;64561;44.018;10.144;2024-01-15T02:00:08;4.82;;;2.55;;
75885;SDS011;64561;44.018;10.144;2024-01-15T02:02:38;6.55;;;2.42;;
75885;SDS011;64561;44.018;10.144;2024-01-15T02:05:06;4.53;;;2.38;;
75885;SDS011;64561;44.018;10.144;2024-01-15T02:07:34;4.35;;;2.30;;
75885;SDS011;64561;44.018;10.144;2024-01-15T02:10:01;4.93;;;2.72;;
75885;SDS011;64561;44.018;10.144;2024-01-15T02:12:29;6.28;;;2.88;;
75885;SDS011;64561;44.018;10.144;2024-01-15T02:14:57;3.30;;;2.50;;
75885;SDS011;64561;44.018;10.144;2024-01-15T02:17:24;5.05;;;2.25;;
75885;SDS011;64561;44.018;10.144;2024-01-15T02:19:51;4.22;;;2.47;;
75885;SDS011;64561;44.018;10.144;2024-01-15T02:22:18;5.45;;;2.80;;
75885;SDS011;64561;44.018;10.144;2024-01-15T02:24:46;4.03;;;2.50;;
75885;SDS011;64561;44.018;10.144;2024-01-15T02:27:13;3.55;;;2.47;;
75885;SDS011;64561;44.018;10.144;2024-01-15T02:29:40;4.30;;;2.55;;
75885;SDS011;64561;44.018;10.144;2024-01-15T02:32:08;7.85;;;3.28;;
75885;SDS011;64561;44.018;10.144;2024-01-15T02:34:35;4.22;;;2.60;;
75885;SDS011;64561;44.018;10.144;2024-01-15T02:37:03;5.65;;;2.78;;
75885;SDS011;64561;44.018;10.144;2024-01-15T02:39:30;5.03;;;2.90;;
75885;SDS011;64561;44.018;10.144;2024-01-15T02:41:57;4.03;;;3.10;;
75885;SDS011;64561;44.018;10.144;2024-01-15T02:44:24;5.45;;;3.10;;
75885;SDS011;64561;44.018;10.144;2024-01-15T02:46:51;5.90;;;2.92;;
75885;SDS011;64561;44.018;10.144;2024-01-15T02:49:18;7.85;;;3.78;;
75885;SDS011;64561;44.018;10.144;2024-01-15T02:51:45;5.38;;;2.72;;
75885;SDS011;64561;44.018;10.144;2024-01-15T02:54:13;6.88;;;2.90;;
75885;SDS011;64561;44.018;10.144;2024-01-15T02:56:42;5.95;;;2.97;;
75885;SDS011;64561;44.018;10.144;2024-01-15T02:59:09;4.85;;;3.33;;
75885;SDS011;64561;44.018;10.144;2024-01-15T03:01:36;4.38;;;3.17;;
75885;SDS011;64561;44.018;10.144;2024-01-15T03:04:04;7.72;;;3.70;;
75885;SDS011;64561;44.018;10.144;2024-01-15T03:06:31;6.07;;;3.38;;
75885;SDS011;64561;44.018;10.144;2024-01-15T03:08:58;5.95;;;3.33;;
75885;SDS011;64561;44.018;10.144;2024-01-15T03:11:25;6.93;;;3.20;;
75885;SDS011;64561;44.018;10.144;2024-01-15T03:13:52;6.03;;;3.40;;
75885;SDS011;64561;44.018;10.144;2024-01-15T03:16:20;7.55;;;3.95;;
75885;SDS011;64561;44.018;10.144;2024-01-15T03:18:47;6.57;;;3.13;;
75885;SDS011;64561;44.018;10.144;2024-01-15T03:21:14;5.25;;;3.17;;
75885;SDS011;64561;44.018;10.144;2024-01-15T03:23:41;3.90;;;2.58;;
75885;SDS011;64561;44.018;10.144;2024-01-15T03:26:09;6.53;;;3.28;;
75885;SDS011;64561;44.018;10.144;2024-01-15T03:28:36;5.32;;;3.25;;
75885;SDS011;64561;44.018;10.144;2024-01-15T03:31:03;6.32;;;3.38;;
75885;SDS011;64561;44.018;10.144;2024-01-15T03:33:31;5.53;;;3.10;;
75885;SDS011;64561;44.018;10.144;2024-01-15T03:35:58;5.18;;;3.53;;
75885;SDS011;64561;44.018;10.144;2024-01-15T03:38:27;5.88;;;3.33;;
75885;SDS011;64561;44.018;10.144;2024-01-15T03:40:55;6.05;;;3.13;;
75885;SDS011;64561;44.018;10.144;2024-01-15T03:43:22;4.30;;;2.95;;
75885;SDS011;64561;44.018;10.144;2024-01-15T03:45:49;6.45;;;3.35;;
75885;SDS011;64561;44.018;10.144;2024-01-15T03:48:16;8.25;;;3.55;;
75885;SDS011;64561;44.018;10.144;2024-01-15T03:50:44;5.50;;;3.03;;
75885;SDS011;64561;44.018;10.144;2024-01-15T03:53:11;8.32;;;3.20;;
75885;SDS011;64561;44.018;10.144;2024-01-15T03:55:38;7.57;;;3.45;;
75885;SDS011;64561;44.018;10.144;2024-01-15T03:58:05;6.78;;;3.40;;
75885;SDS011;64561;44.018;10.144;2024-01-15T04:00:33;6.85;;;3.63;;
75885;SDS011;64561;44.018;10.144;2024-01-15T04:03:01;5.47;;;3.30;;
75885;SDS011;64561;44.018;10.144;2024-01-15T04:05:28;5.07;;;3.20;;
75885;SDS011;64561;44.018;10.144;2024-01-15T04:07:55;5.78;;;3.53;;
75885;SDS011;64561;44.018;10.144;2024-01-15T04:10:22;6.57;;;3.15;;
75885;SDS011;64561;44.018;10.144;2024-01-15T04:12:49;7.03;;;3.25;;
75885;SDS011;64561;44.018;10.144;2024-01-15T04:15:17;6.30;;;3.42;;
75885;SDS011;64561;44.018;10.144;2024-01-15T04:17:44;3.97;;;2.80;;
75885;SDS011;64561;44.018;10.144;2024-01-15T04:20:11;5.72;;;3.08;;
75885;SDS011;64561;44.018;10.144;2024-01-15T04:22:39;8.05;;;3.20;;
75885;SDS011;64561;44.018;10.144;2024-01-15T04:25:06;6.60;;;3.17;;
75885;SDS011;64561;44.018;10.144;2024-01-15T04:27:33;6.57;;;3.70;;
75885;SDS011;64561;44.018;10.144;2024-01-15T04:30:00;6.45;;;3.42;;
75885;SDS011;64561;44.018;10.144;2024-01-15T04:32:29;7.80;;;3.35;;
75885;SDS011;64561;44.018;10.144;2024-01-15T04:34:57;6.13;;;2.83;;
75885;SDS011;64561;44.018;10.144;2024-01-15T04:37:24;12.50;;;5.07;;
75885;SDS011;64561;44.018;10.144;2024-01-15T04:39:51;12.40;;;5.20;;
75885;SDS011;64561;44.018;10.144;2024-01-15T04:42:21;8.88;;;3.42;;
75885;SDS011;64561;44.018;10.144;2024-01-15T04:44:51;5.60;;;3.28;;
75885;SDS011;64561;44.018;10.144;2024-01-15T04:47:18;7.47;;;3.53;;
75885;SDS011;64561;44.018;10.144;2024-01-15T04:49:45;9.82;;;4.45;;
75885;SDS011;64561;44.018;10.144;2024-01-15T04:52:13;8.45;;;3.38;;
75885;SDS011;64561;44.018;10.144;2024-01-15T04:54:40;6.68;;;3.00;;
75885;SDS011;64561;44.018;10.144;2024-01-15T04:57:07;7.55;;;3.78;;
75885;SDS011;64561;44.018;10.144;2024-01-15T04:59:34;9.82;;;4.82;;
75885;SDS011;64561;44.018;10.144;2024-01-15T05:02:01;11.13;;;5.43;;
75885;SDS011;64561;44.018;10.144;2024-01-15T05:04:29;7.90;;;4.90;;
75885;SDS011;64561;44.018;10.144;2024-01-15T05:06:56;14.55;;;6.68;;
75885;SDS011;64561;44.018;10.144;2024-01-15T05:09:23;14.80;;;6.32;;
75885;SDS011;64561;44.018;10.144;2024-01-15T05:11:50;10.73;;;6.07;;
75885;SDS011;64561;44.018;10.144;2024-01-15T05:14:18;12.23;;;5.53;;
75885;SDS011;64561;44.018;10.144;2024-01-15T05:16:48;8.20;;;5.03;;
75885;SDS011;64561;44.018;10.144;2024-01-15T05:19:16;9.45;;;4.57;;
75885;SDS011;64561;44.018;10.144;2024-01-15T05:21:43;9.40;;;4.43;;
75885;SDS011;64561;44.018;10.144;2024-01-15T05:24:11;7.15;;;4.43;;
75885;SDS011;64561;44.018;10.144;2024-01-15T05:26:38;6.50;;;4.50;;
75885;SDS011;64561;44.018;10.144;2024-01-15T05:29:05;6.78;;;3.78;;
75885;SDS011;64561;44.018;10.144;2024-01-15T05:31:32;7.07;;;3.83;;
75885;SDS011;64561;44.018;10.144;2024-01-15T05:34:00;7.78;;;3.28;;
75885;SDS011;64561;44.018;10.144;2024-01-15T05:36:28;5.78;;;3.45;;
75885;SDS011;64561;44.018;10.144;2024-01-15T05:38:55;6.47;;;3.20;;
75885;SDS011;64561;44.018;10.144;2024-01-15T05:41:22;5.47;;;2.90;;
75885;SDS011;64561;44.018;10.144;2024-01-15T05:43:49;24.60;;;13.32;;
75885;SDS011;64561;44.018;10.144;2024-01-15T05:46:16;22.08;;;13.32;;
75885;SDS011;64561;44.018;10.144;2024-01-15T05:48:43;13.35;;;8.52;;
75885;SDS011;64561;44.018;10.144;2024-01-15T05:51:11;9.00;;;5.35;;
75885;SDS011;64561;44.018;10.144;2024-01-15T05:53:39;10.70;;;7.13;;
75885;SDS011;64561;44.018;10.144;2024-01-15T05:56:08;11.93;;;6.72;;
75885;SDS011;64561;44.018;10.144;2024-01-15T05:58:37;9.63;;;5.93;;
75885;SDS011;64561;44.018;10.144;2024-01-15T06:01:04;9.07;;;5.65;;
75885;SDS011;64561;44.018;10.144;2024-01-15T06:03:31;12.73;;;6.05;;
75885;SDS011;64561;44.018;10.144;2024-01-15T06:05:59;8.20;;;4.80;;
75885;SDS011;64561;44.018;10.144;2024-01-15T06:08:26;8.48;;;4.93;;
75885;SDS011;64561;44.018;10.144;2024-01-15T06:10:55;7.97;;;5.53;;
75885;SDS011;64561;44.018;10.144;2024-01-15T06:13:27;8.43;;;4.97;;
75885;SDS011;64561;44.018;10.144;2024-01-15T06:15:54;8.55;;;5.55;;
75885;SDS011;64561;44.018;10.144;2024-01-15T06:18:21;8.63;;;5.50;;
75885;SDS011;64561;44.018;10.144;2024-01-15T06:20:48;6.57;;;4.25;;
75885;SDS011;64561;44.018;10.144;2024-01-15T06:23:16;9.32;;;5.20;;
75885;SDS011;64561;44.018;10.144;2024-01-15T06:28:14;7.18;;;4.13;;
75885;SDS011;64561;44.018;10.144;2024-01-15T06:30:41;6.80;;;4.20;;
75885;SDS011;64561;44.018;10.144;2024-01-15T06:33:09;5.88;;;4.18;;
75885;SDS011;64561;44.018;10.144;2024-01-15T06:35:36;7.82;;;4.35;;
75885;SDS011;64561;44.018;10.144;2024-01-15T06:40:56;6.80;;;4.07;;
75885;SDS011;64561;44.018;10.144;2024-01-15T06:43:23;10.52;;;4.78;;
75885;SDS011;64561;44.018;10.144;2024-01-15T06:45:50;6.45;;;3.80;;
75885;SDS011;64561;44.018;10.144;2024-01-15T06:48:17;8.45;;;4.15;;
75885;SDS011;64561;44.018;10.144;2024-01-15T06:50:45;8.43;;;3.95;;
75885;SDS011;64561;44.018;10.144;2024-01-15T06:53:14;7.38;;;4.70;;
75885;SDS011;64561;44.018;10.144;2024-01-15T06:55:41;8.40;;;4.28;;
75885;SDS011;64561;44.018;10.144;2024-01-15T06:58:09;7.00;;;3.92;;
75885;SDS011;64561;44.018;10.144;2024-01-15T07:00:36;5.82;;;3.75;;
75885;SDS011;64561;44.018;10.144;2024-01-15T07:03:04;7.07;;;4.00;;
75885;SDS011;64561;44.018;10.144;2024-01-15T07:05:32;11.07;;;4.85;;
75885;SDS011;64561;44.018;10.144;2024-01-15T07:07:59;9.40;;;4.63;;
75885;SDS011;64561;44.018;10.144;2024-01-15T07:10:26;9.23;;;4.90;;
75885;SDS011;64561;44.018;10.144;2024-01-15T07:12:59;7.18;;;4.50;;
75885;SDS011;64561;44.018;10.144;2024-01-15T07:15:27;7.07;;;4.35;;
75885;SDS011;64561;44.018;10.144;2024-01-15T07:17:54;6.80;;;4.57;;
75885;SDS011;64561;44.018;10.144;2024-01-15T07:20:21;10.50;;;4.65;;
75885;SDS011;64561;44.018;10.144;2024-01-15T07:22:49;6.40;;;4.28;;
75885;SDS011;64561;44.018;10.144;2024-01-15T07:25:16;8.80;;;4.80;;
75885;SDS011;64561;44.018;10.144;2024-01-15T07:27:44;8.05;;;4.53;;
75885;SDS011;64561;44.018;10.144;2024-01-15T07:30:12;9.43;;;4.97;;
75885;SDS011;64561;44.018;10.144;2024-01-15T07:32:40;8.57;;;4.03;;
75885;SDS011;64561;44.018;10.144;2024-01-15T07:35:07;13.23;;;5.82;;
75885;SDS011;64561;44.018;10.144;2024-01-15T07:37:35;7.95;;;4.35;;
75885;SDS011;64561;44.018;10.144;2024-01-15T07:40:02;10.00;;;4.85;;
75885;SDS011;64561;44.018;10.144;2024-01-15T07:42:31;6.72;;;4.00;;
75885;SDS011;64561;44.018;10.144;2024-01-15T07:44:58;7.18;;;4.20;;
75885;SDS011;64561;44.018;10.144;2024-01-15T07:47:25;9.68;;;5.15;;
75885;SDS011;64561;44.018;10.144;2024-01-15T07:49:53;8.98;;;4.90;;
75885;SDS011;64561;44.018;10.144;2024-01-15T07:52:21;9.77;;;5.03;;
75885;SDS011;64561;44.018;10.144;2024-01-15T07:54:48;9.63;;;5.75;;
75885;SDS011;64561;44.018;10.144;2024-01-15T07:57:15;9.48;;;5.20;;
75885;SDS011;64561;44.018;10.144;2024-01-15T07:59:43;10.57;;;5.05;;
75885;SDS011;64561;44.018;10.144;2024-01-15T08:02:10;9.45;;;4.82;;
75885;SDS011;64561;44.018;10.144;2024-01-15T08:04:37;8.23;;;4.95;;
75885;SDS011;64561;44.018;10.144;2024-01-15T08:07:08;8.95;;;5.05;;
75885;SDS011;64561;44.018;10.144;2024-01-15T08:09:35;10.93;;;6.28;;
75885;SDS011;64561;44.018;10.144;2024-01-15T08:12:03;7.78;;;4.60;;
75885;SDS011;64561;44.018;10.144;2024-01-15T08:14:33;7.75;;;4.13;;
75885;SDS011;64561;44.018;10.144;2024-01-15T08:17:00;7.80;;;4.68;;
75885;SDS011;64561;44.018;10.144;2024-01-15T08:19:28;6.65;;;4.78;;
75885;SDS011;64561;44.018;10.144;2024-01-15T08:21:55;14.98;;;6.22;;
75885;SDS011;64561;44.018;10.144;2024-01-15T08:24:23;10.75;;;6.00;;
75885;SDS011;64561;44.018;10.144;2024-01-15T08:26:50;13.60;;;7.63;;
75885;SDS011;64561;44.018;10.144;2024-01-15T08:29:17;15.57;;;7.35;;
75885;SDS011;64561;44.018;10.144;2024-01-15T08:31:47;10.57;;;7.22;;
75885;SDS011;64561;44.018;10.144;2024-01-15T08:34:15;12.55;;;8.18;;
75885;SDS011;64561;44.018;10.144;2024-01-15T08:36:42;24.30;;;13.30;;
75885;SDS011;64561;44.018;10.144;2024-01-15T08:39:09;20.55;;;11.75;;
75885;SDS011;64561;44.018;10.144;2024-01-15T08:41:37;24.00;;;11.50;;
75885;SDS011;64561;44.018;10.144;2024-01-15T08:44:04;17.33;;;10.32;;
75885;SDS011;64561;44.018;10.144;2024-01-15T08:46:31;15.52;;;9.07;;
75885;SDS011;64561;44.018;10.144;2024-01-15T08:48:58;18.38;;;9.40;;
75885;SDS011;64561;44.018;10.144;2024-01-15T08:51:26;15.60;;;8.65;;
75885;SDS011;64561;44.018;10.144;2024-01-15T08:53:53;13.05;;;8.32;;
75885;SDS011;64561;44.018;10.144;2024-01-15T08:56:20;13.60;;;7.05;;
75885;SDS011;64561;44.018;10.144;2024-01-15T08:58:47;11.65;;;7.60;;
75885;SDS011;64561;44.018;10.144;2024-01-15T09:01:15;14.02;;;8.10;;
75885;SDS011;64561;44.018;10.144;2024-01-15T09:03:42;33.85;;;18.02;;
75885;SDS011;64561;44.018;10.144;2024-01-15T09:06:10;29.95;;;14.07;;
75885;SDS011;64561;44.018;10.144;2024-01-15T09:08:37;24.17;;;10.50;;
75885;SDS011;64561;44.018;10.144;2024-01-15T09:11:05;21.95;;;9.38;;
75885;SDS011;64561;44.018;10.144;2024-01-15T09:13:32;10.88;;;6.20;;
75885;SDS011;64561;44.018;10.144;2024-01-15T09:15:59;13.18;;;6.63;;
75885;SDS011;64561;44.018;10.144;2024-01-15T09:18:27;17.13;;;7.70;;
75885;SDS011;64561;44.018;10.144;2024-01-15T09:20:55;20.85;;;9.40;;
75885;SDS011;64561;44.018;10.144;2024-01-15T09:23:22;17.67;;;9.68;;
75885;SDS011;64561;44.018;10.144;2024-01-15T09:25:49;16.25;;;7.95;;
75885;SDS011;64561;44.018;10.144;2024-01-15T09:28:19;12.63;;;6.43;;
75885;SDS011;64561;44.018;10.144;2024-01-15T09:30:46;8.68;;;4.07;;
75885;SDS011;64561;44.018;10.144;2024-01-15T09:33:14;8.68;;;3.78;;
75885;SDS011;64561;44.018;10.144;2024-01-15T09:35:41;7.90;;;3.70;;
75885;SDS011;64561;44.018;10.144;2024-01-15T09:38:08;14.95;;;6.15;;
75885;SDS011;64561;44.018;10.144;2024-01-15T09:40:36;8.70;;;4.15;;
75885;SDS011;64561;44.018;10.144;2024-01-15T09:43:05;8.15;;;3.22;;
75885;SDS011;64561;44.018;10.144;2024-01-15T09:45:33;7.32;;;3.70;;
75885;SDS011;64561;44.018;10.144;2024-01-15T09:48:00;7.43;;;3.80;;
75885;SDS011;64561;44.018;10.144;2024-01-15T09:50:28;6.15;;;3.72;;
75885;SDS011;64561;44.018;10.144;2024-01-15T09:52:55;11.07;;;4.25;;
75885;SDS011;64561;44.018;10.144;2024-01-15T09:55:24;5.85;;;3.83;;
75885;SDS011;64561;44.018;10.144;2024-01-15T09:57:51;6.95;;;4.20;;
75885;SDS011;64561;44.018;10.144;2024-01-15T10:00:21;7.65;;;3.90;;
75885;SDS011;64561;44.018;10.144;2024-01-15T10:02:49;9.02;;;4.22;;
75885;SDS011;64561;44.018;10.144;2024-01-15T10:05:16;8.85;;;3.67;;
75885;SDS011;64561;44.018;10.144;2024-01-15T10:07:43;8.20;;;4.10;;
75885;SDS011;64561;44.018;10.144;2024-01-15T10:10:16;10.57;;;5.05;;
75885;SDS011;64561;44.018;10.144;2024-01-15T10:12:44;8.18;;;4.20;;
75885;SDS011;64561;44.018;10.144;2024-01-15T10:15:11;7.53;;;4.20;;
75885;SDS011;64561;44.018;10.144;2024-01-15T10:17:39;9.38;;;5.95;;
75885;SDS011;64561;44.018;10.144;2024-01-15T10:20:10;9.85;;;5.28;;
75885;SDS011;64561;44.018;10.144;2024-01-15T10:22:40;9.57;;;4.78;;
75885;SDS011;64561;44.018;10.144;2024-01-15T10:25:12;6.65;;;5.00;;
75885;SDS011;64561;44.018;10.144;2024-01-15T10:27:40;6.88;;;4.00;;
75885;SDS011;64561;44.018;10.144;2024-01-15T10:30:11;8.57;;;4.00;;
75885;SDS011;64561;44.018;10.144;2024-01-15T10:32:41;8.52;;;3.97;;
75885;SDS011;64561;44.018;10.144;2024-01-15T10:35:08;6.88;;;3.45;;
75885;SDS011;64561;44.018;10.144;2024-01-15T10:37:36;9.35;;;5.03;;
75885;SDS011;64561;44.018;10.144;2024-01-15T10:40:03;9.48;;;4.50;;
75885;SDS011;64561;44.018;10.144;2024-01-15T10:42:32;7.32;;;3.78;;
75885;SDS011;64561;44.018;10.144;2024-01-15T10:44:59;8.15;;;4.40;;
75885;SDS011;64561;44.018;10.144;2024-01-15T10:47:26;10.90;;;4.47;;
75885;SDS011;64561;44.018;10.144;2024-01-15T10:49:54;7.80;;;3.78;;
75885;SDS011;64561;44.018;10.144;2024-01-15T10:52:21;7.80;;;4.00;;
75885;SDS011;64561;44.018;10.144;2024-01-15T10:54:48;11.85;;;5.43;;
75885;SDS011;64561;44.018;10.144;2024-01-15T10:57:17;8.00;;;4.93;;
75885;SDS011;64561;44.018;10.144;2024-01-15T10:59:46;10.60;;;4.53;;
75885;SDS011;64561;44.018;10.144;2024-01-15T11:02:13;19.80;;;7.68;;
75885;SDS011;64561;44.018;10.144;2024-01-15T11:04:42;14.20;;;5.38;;
75885;SDS011;64561;44.018;10.144;2024-01-15T11:07:09;11.90;;;5.57;;
75885;SDS011;64561;44.018;10.144;2024-01-15T11:09:38;12.07;;;5.85;;
75885;SDS011;64561;44.018;10.144;2024-01-15T11:12:07;8.13;;;4.18;;
75885;SDS011;64561;44.018;10.144;2024-01-15T11:14:44;9.13;;;4.28;;
75885;SDS011;64561;44.018;10.144;2024-01-15T11:17:13;8.65;;;4.78;;
75885;SDS011;64561;44.018;10.144;2024-01-15T11:25:02;7.40;;;4.18;;
75885;SDS011;64561;44.018;10.144;2024-01-15T11:27:50;9.23;;;4.57;;
75885;SDS011;64561;44.018;10.144;2024-01-15T11:30:24;8.20;;;4.75;;
75885;SDS011;64561;44.018;10.144;2024-01-15T11:32:53;9.35;;;4.57;;
75885;SDS011;64561;44.018;10.144;2024-01-15T11:35:20;10.48;;;6.40;;
75885;SDS011;64561;44.018;10.144;2024-01-15T11:40:23;9.43;;;5.20;;
75885;SDS011;64561;44.018;10.144;2024-01-15T11:43:05;12.98;;;7.95;;
75885;SDS011;64561;44.018;10.144;2024-01-15T11:45:34;9.98;;;5.18;;
75885;SDS011;64561;44.018;10.144;2024-01-15T11:48:14;8.23;;;3.95;;
75885;SDS011;64561;44.018;10.144;2024-01-15T11:50:47;9.60;;;5.00;;
75885;SDS011;64561;44.018;10.144;2024-01-15T11:53:33;11.43;;;5.05;;
75885;SDS011;64561;44.018;10.144;2024-01-15T11:56:14;10.60;;;6.28;;
75885;SDS011;64561;44.018;10.144;2024-01-15T11:58:44;7.38;;;4.53;;
75885;SDS011;64561;44.018;10.144;2024-01-15T12:01:11;8.70;;;5.28;;
75885;SDS011;64561;44.018;10.144;2024-01-15T12:03:39;8.32;;;3.78;;
75885;SDS011;64561;44.018;10.144;2024-01-15T12:06:06;7.38;;;4.00;;
75885;SDS011;64561;44.018;10.144;2024-01-15T12:08:34;8.20;;;5.38;;
75885;SDS011;64561;44.018;10.144;2024-01-15T12:11:06;12.88;;;7.28;;
75885;SDS011;64561;44.018;10.144;2024-01-15T12:13:38;9.75;;;5.85;;
75885;SDS011;64561;44.018;10.144;2024-01-15T12:16:05;25.45;;;13.18;;
75885;SDS011;64561;44.018;10.144;2024-01-15T12:18:32;14.68;;;7.22;;
75885;SDS011;64561;44.018;10.144;2024-01-15T12:21:00;9.68;;;5.25;;
75885;SDS011;64561;44.018;10.144;2024-01-15T12:23:27;13.63;;;9.18;;
75885;SDS011;64561;44.018;10.144;2024-01-15T12:25:54;12.88;;;7.03;;
75885;SDS011;64561;44.018;10.144;2024-01-15T12:28:22;8.43;;;4.32;;
75885;SDS011;64561;44.018;10.144;2024-01-15T12:30:49;8.70;;;3.90;;
75885;SDS011;64561;44.018;10.144;2024-01-15T12:33:18;7.30;;;4.57;;
75885;SDS011;64561;44.018;10.144;2024-01-15T12:35:48;9.77;;;4.40;;
75885;SDS011;64561;44.018;10.144;2024-01-15T12:38:18;5.05;;;4.05;;
75885;SDS011;64561;44.018;10.144;2024-01-15T12:43:38;8.18;;;4.00;;
75885;SDS011;64561;44.018;10.144;2024-01-15T12:46:07;5.78;;;3.60;;
75885;SDS011;64561;44.018;10.144;2024-01-15T12:48:35;8.10;;;4.95;;
75885;SDS011;64561;44.018;10.144;2024-01-15T12:51:05;7.03;;;4.10;;
75885;SDS011;64561;44.018;10.144;2024-01-15T12:53:33;8.15;;;3.95;;
75885;SDS011;64561;44.018;10.144;2024-01-15T12:56:00;9.38;;;4.65;;
75885;SDS011;64561;44.018;10.144;2024-01-15T12:58:27;6.93;;;4.35;;
75885;SDS011;64561;44.018;10.144;2024-01-15T13:00:54;7.35;;;4.18;;
75885;SDS011;64561;44.018;10.144;2024-01-15T13:03:22;7.13;;;3.63;;
75885;SDS011;64561;44.018;10.144;2024-01-15T13:05:49;7.95;;;3.63;;
75885;SDS011;64561;44.018;10.144;2024-01-15T13:08:18;6.28;;;3.60;;
75885;SDS011;64561;44.018;10.144;2024-01-15T13:10:45;4.88;;;3.53;;
75885;SDS011;64561;44.018;10.144;2024-01-15T13:13:13;7.50;;;4.70;;
75885;SDS011;64561;44.018;10.144;2024-01-15T13:15:40;6.05;;;3.97;;
75885;SDS011;64561;44.018;10.144;2024-01-15T13:18:07;6.60;;;4.10;;
75885;SDS011;64561;44.018;10.144;2024-01-15T13:20:35;7.85;;;4.82;;
75885;SDS011;64561;44.018;10.144;2024-01-15T13:23:03;8.45;;;5.68;;
75885;SDS011;64561;44.018;10.144;2024-01-15T13:25:31;8.27;;;5.18;;
75885;SDS011;64561;44.018;10.144;2024-01-15T13:28:00;11.57;;;6.93;;
75885;SDS011;64561;44.018;10.144;2024-01-15T13:30:29;23.38;;;11.02;;
75885;SDS011;64561;44.018;10.144;2024-01-15T13:32:57;12.63;;;7.05;;
75885;SDS011;64561;44.018;10.144;2024-01-15T13:35:24;9.48;;;6.95;;
75885;SDS011;64561;44.018;10.144;2024-01-15T13:37:52;7.93;;;4.97;;
75885;SDS011;64561;44.018;10.144;2024-01-15T13:40:19;9.77;;;5.30;;
75885;SDS011;64561;44.018;10.144;2024-01-15T13:42:47;8.82;;;5.03;;
75885;SDS011;64561;44.018;10.144;2024-01-15T13:45:15;10.60;;;5.80;;
75885;SDS011;64561;44.018;10.144;2024-01-15T13:47:43;8.55;;;6.05;;
75885;SDS011;64561;44.018;10.144;2024-01-15T13:50:11;8.63;;;4.93;;
75885;SDS011;64561;44.018;10.144;2024-01-15T13:52:39;9.05;;;5.70;;
75885;SDS011;64561;44.018;10.144;2024-01-15T13:55:06;7.57;;;5.00;;
75885;SDS011;64561;44.018;10.144;2024-01-15T13:57:35;9.55;;;5.88;;
75885;SDS011;64561;44.018;10.144;2024-01-15T14:00:03;8.82;;;5.85;;
75885;SDS011;64561;44.018;10.144;2024-01-15T14:02:36;9.10;;;5.90;;
75885;SDS011;64561;44.018;10.144;2024-01-15T14:05:04;10.13;;;5.70;;
75885;SDS011;64561;44.018;10.144;2024-01-15T14:07:32;9.82;;;5.60;;
75885;SDS011;64561;44.018;10.144;2024-01-15T14:10:00;9.43;;;5.47;;
75885;SDS011;64561;44.018;10.144;2024-01-15T14:12:28;7.95;;;4.88;;
75885;SDS011;64561;44.018;10.144;2024-01-15T14:15:00;5.82;;;3.75;;
75885;SDS011;64561;44.018;10.144;2024-01-15T14:17:33;8.52;;;5.65;;
75885;SDS011;64561;44.018;10.144;2024-01-15T14:20:04;18.75;;;9.80;;
75885;SDS011;64561;44.018;10.144;2024-01-15T14:22:33;15.25;;;8.38;;
75885;SDS011;64561;44.018;10.144;2024-01-15T14:25:00;10.70;;;5.78;;
75885;SDS011;64561;44.018;10.144;2024-01-15T14:27:31;6.72;;;3.55;;
75885;SDS011;64561;44.018;10.144;2024-01-15T14:30:00;5.65;;;3.72;;
75885;SDS011;64561;44.018;10.144;2024-01-15T14:32:33;7.07;;;4.80;;
75885;SDS011;64561;44.018;10.144;2024-01-15T14:37:31;5.25;;;3.50;;
75885;SDS011;64561;44.018;10.144;2024-01-15T14:39:59;5.53;;;3.75;;
75885;SDS011;64561;44.018;10.144;2024-01-15T14:42:29;10.23;;;5.97;;
75885;SDS011;64561;44.018;10.144;2024-01-15T14:44:57;8.55;;;5.50;;
75885;SDS011;64561;44.018;10.144;2024-01-15T14:47:24;24.85;;;15.93;;
75885;SDS011;64561;44.018;10.144;2024-01-15T14:49:54;25.63;;;16.45;;
75885;SDS011;64561;44.018;10.144;2024-01-15T14:52:24;17.50;;;9.38;;
75885;SDS011;64561;44.018;10.144;2024-01-15T14:54:51;14.98;;;9.45;;